Reedville, Vermont
Current Conditions -  °F | °C
As of 11:01 PM on Saturday 25 Oct 2014 (Local Time) from KVSF Reporting Station
Haze Haze  
Wind Chill: 46°   Ceiling: Unl
Heat Index: 46°   Visibility: 0.75mi
Dew Point: 46°   Wind: 0mph
Humidity: 100%   Direction: NA
Pressure: 29.5"   Gusts: NA
Location:  43.2811°N, 72.6352°W
Report Text: KVSF 260301Z AUTO 00000KT 3/4SM BR FEW045 SCT080 08/08 A2950 RMK AO2 T00780078
Loading
Personal Weather Stations






























Interactive Weather Map
Tropical Storm Tracking
New forecast layout! Learn more

10-Day Weather Forecast

Advertisements
Track Severe Weather on mobile